createdAt,value
2023-05-10T12:26:05.563Z,18.44
2023-05-10T12:31:16.033Z,17.88
2023-05-10T12:36:25.722Z,17.88
2023-05-10T12:41:33.576Z,18.38
2023-05-10T12:46:42.044Z,18.62
2023-05-10T12:51:51.803Z,18.69
2023-05-10T12:57:01.565Z,19
2023-05-10T13:02:11.324Z,19.06
2023-05-10T13:07:20.466Z,18.62
2023-05-10T13:12:29.559Z,18.75
2023-05-10T13:17:39.410Z,18.38
2023-05-10T13:22:47.810Z,18.38
2023-05-10T13:27:57.561Z,18.44
2023-05-10T13:33:06.808Z,18.31
2023-05-10T13:38:15.808Z,18
2023-05-10T13:43:25.571Z,18.56
2023-05-10T13:48:38.213Z,18.5
2023-05-10T13:53:43.164Z,19
2023-05-10T13:58:52.938Z,19.12
2023-05-10T14:04:02.752Z,19.19
2023-05-10T14:09:11.815Z,19.06
2023-05-10T14:14:20.295Z,19.19
2023-05-10T14:19:29.402Z,19.44
2023-05-10T14:24:37.882Z,19.25
2023-05-10T14:29:47.003Z,19.56
2023-05-10T14:34:56.127Z,19.69
2023-05-10T14:40:04.602Z,20
2023-05-10T14:45:13.721Z,19.62
2023-05-10T14:50:37.233Z,19.75
2023-05-10T14:55:30.105Z,20
2023-05-10T15:00:38.518Z,20.06
2023-05-10T15:05:47.014Z,20.44
2023-05-10T15:52:09.720Z,19.12
2023-05-10T15:57:18.860Z,19.25
2023-05-10T16:02:28.116Z,19
2023-05-10T16:07:35.803Z,18.94
2023-05-10T16:12:45.587Z,18.88
2023-05-10T16:17:54.901Z,18.88
2023-05-10T16:23:02.528Z,18.81
2023-05-10T16:28:11.640Z,18.81
2023-05-10T16:33:20.133Z,18.62
2023-05-10T16:38:28.601Z,18.5
2023-05-10T16:43:37.082Z,18.19
2023-05-10T16:48:45.577Z,18.06
2023-05-10T16:53:55.322Z,17.94
2023-05-10T16:59:05.754Z,17.88
2023-05-10T17:04:14.422Z,17.81
2023-05-10T17:09:23.965Z,17.62
2023-05-10T17:14:33.727Z,17.5
2023-05-10T17:19:42.845Z,17.38
2023-05-10T17:24:51.992Z,17.25
2023-05-10T17:30:01.724Z,17.31
2023-05-10T17:35:10.850Z,17.06
2023-05-10T17:40:19.979Z,16.62
2023-05-10T17:45:28.457Z,16
2023-05-10T17:50:36.920Z,15.44
2023-05-10T17:55:46.698Z,15.44
2023-05-10T18:00:55.826Z,15.12
2023-05-10T18:06:04.697Z,15.25
2023-05-10T18:11:14.051Z,15.31
2023-05-10T18:16:22.588Z,15.19
2023-05-10T18:21:32.289Z,15.12
2023-05-10T18:26:40.124Z,15.19
2023-05-10T18:31:49.237Z,15.19
2023-05-10T18:36:59.022Z,15.12
2023-05-10T18:42:08.762Z,15.12
2023-05-10T18:47:17.905Z,15
2023-05-10T19:28:29.589Z,14.94
2023-05-10T19:33:38.836Z,14.88
2023-05-10T19:38:48.439Z,14.75
2023-05-10T19:43:58.230Z,14.81
2023-05-10T19:49:06.692Z,14.62
2023-05-10T19:54:15.778Z,14.56
2023-05-10T19:59:24.310Z,14.5
2023-05-10T20:04:34.040Z,14.44
2023-05-10T20:09:42.518Z,14.38
2023-05-10T20:14:52.916Z,14.38
2023-05-10T20:20:01.409Z,14.25
2023-05-10T20:25:09.876Z,14.19
2023-05-10T20:30:18.820Z,14.12
2023-05-10T20:35:26.851Z,14.06
2023-05-10T20:40:35.973Z,14.25
2023-05-10T20:45:45.733Z,14.25
2023-05-10T20:50:53.556Z,14.06
2023-05-10T20:56:02.694Z,14.06
2023-05-10T21:01:11.244Z,14.19
2023-05-10T21:06:19.847Z,14.06
2023-05-10T21:11:28.757Z,14.19
2023-05-10T21:16:39.002Z,14.12
2023-05-10T21:21:47.002Z,14.12
2023-05-10T21:26:55.498Z,14.12
2023-05-10T21:32:04.205Z,14.06
2023-05-10T21:37:13.725Z,14.12
2023-05-10T21:42:22.208Z,14
2023-05-10T21:47:32.316Z,14.06
2023-05-10T21:52:41.092Z,14
2023-05-10T21:57:50.863Z,13.94
2023-05-10T22:03:00.874Z,13.88
2023-05-10T22:08:10.381Z,13.88
2023-05-10T22:13:18.854Z,13.94
2023-05-10T22:18:27.370Z,13.88
2023-05-10T23:04:52.055Z,13.88
2023-05-10T23:10:01.163Z,13.88
2023-05-10T23:15:10.850Z,13.88
2023-05-10T23:20:21.080Z,13.75
2023-05-10T23:25:29.100Z,13.62
2023-05-10T23:30:38.834Z,13.44
2023-05-10T23:35:46.683Z,13.56
2023-05-10T23:40:55.168Z,13.44
2023-05-10T23:46:03.803Z,13.56
2023-05-10T23:51:14.064Z,13.56
2023-05-10T23:56:23.804Z,13.5
